X  Schließen METAR Luftfahrt Wetterdaten        EDDR Saarbrücken
Temperatur
19°C Temperatur
13°C Taupunkt
68% Feuchtigkeit



Wind
7 km/h
5 MPS
2 m/s
4 Ktn



70°
ONO
Aktuelle Wetterlage

Mostly Clear Größtenteils klar
Luftdruck 1018 (hPa) - 30.07 (inchHg)
Sichtweite 7 (Meile) - 11 (Km)
Flughafen
Flughafen Code EDDR

Position : Saarbrücken
Entfernung: 8 (Km)

Metar:
METAR EDDR 142120Z 07004KT 040V100 CAVOK 19/13 Q1019

Zeit: 14-06-2021 23:20 CEST